createdAt,value
2022-07-27T00:01:08.417Z,21.77
2022-07-27T00:03:36.931Z,19.35
2022-07-27T00:06:05.147Z,23.40
2022-07-27T00:08:33.306Z,30.77
2022-07-27T00:11:02.800Z,21.58
2022-07-27T00:13:32.303Z,23.55
2022-07-27T00:16:00.450Z,23.33
2022-07-27T00:18:28.540Z,19.45
2022-07-27T00:20:56.567Z,17.35
2022-07-27T00:23:24.691Z,21.05
2022-07-27T00:25:52.873Z,17.20
2022-07-27T00:28:22.265Z,20.58
2022-07-27T00:30:50.413Z,17.75
2022-07-27T00:33:18.523Z,14.63
2022-07-27T00:35:46.588Z,13.52
2022-07-27T00:38:14.758Z,14.18
2022-07-27T00:40:43.012Z,17.13
2022-07-27T00:43:11.111Z,9.23
2022-07-27T00:45:40.477Z,12.25
2022-07-27T00:48:08.595Z,10.23
2022-07-27T00:50:37.191Z,12.70
2022-07-27T00:53:06.070Z,15.98
2022-07-27T00:55:35.225Z,15.40
2022-07-27T00:58:05.878Z,16.35
2022-07-27T01:00:33.974Z,15.65
2022-07-27T01:03:07.394Z,14.82
2022-07-27T01:05:42.953Z,13.23
2022-07-27T01:08:14.240Z,16.00
2022-07-27T01:10:43.449Z,18.55
2022-07-27T01:13:13.275Z,11.10
2022-07-27T01:15:43.119Z,9.30
2022-07-27T01:18:28.497Z,12.32
2022-07-27T01:20:56.923Z,10.63
2022-07-27T01:23:27.305Z,10.40
2022-07-27T01:25:55.593Z,11.40
2022-07-27T01:28:24.115Z,11.18
2022-07-27T01:30:53.213Z,12.43
2022-07-27T01:33:26.026Z,13.00
2022-07-27T01:35:55.955Z,8.70
2022-07-27T01:38:24.185Z,7.47
2022-07-27T01:40:54.931Z,9.82
2022-07-27T01:43:23.386Z,8.82
2022-07-27T01:45:51.748Z,8.73
2022-07-27T01:48:20.754Z,14.13
2022-07-27T01:50:51.055Z,11.30
2022-07-27T01:53:19.241Z,7.88
2022-07-27T01:55:47.634Z,8.20
2022-07-27T01:58:17.445Z,8.77
2022-07-27T02:00:45.919Z,8.52
2022-07-27T02:03:14.030Z,7.00
2022-07-27T02:05:42.103Z,6.88
2022-07-27T02:08:10.564Z,9.25
2022-07-27T02:10:59.047Z,6.93
2022-07-27T02:13:28.409Z,8.18
2022-07-27T02:15:57.162Z,14.70
2022-07-27T02:18:33.381Z,9.30
2022-07-27T02:21:05.993Z,12.77
2022-07-27T02:23:35.182Z,7.03
2022-07-27T02:26:04.004Z,9.35
2022-07-27T02:28:33.687Z,9.05
2022-07-27T02:31:02.308Z,8.68
2022-07-27T02:33:30.550Z,8.65
2022-07-27T02:35:58.904Z,6.72
2022-07-27T02:38:27.005Z,5.55
2022-07-27T02:40:55.107Z,11.15
2022-07-27T02:43:23.262Z,10.60
2022-07-27T02:45:52.847Z,7.05
2022-07-27T02:48:20.975Z,8.32
2022-07-27T02:50:49.056Z,10.40
2022-07-27T02:53:17.113Z,6.55
2022-07-27T02:55:45.148Z,9.88
2022-07-27T02:58:13.148Z,11.20
2022-07-27T03:00:41.387Z,11.10
2022-07-27T03:03:10.745Z,6.18
2022-07-27T03:05:39.461Z,5.22
2022-07-27T03:08:07.837Z,8.07
2022-07-27T03:10:35.961Z,4.28
2022-07-27T03:13:04.203Z,10.10
2022-07-27T03:15:34.348Z,8.38
2022-07-27T03:18:02.819Z,4.38
2022-07-27T03:20:32.531Z,4.18
2022-07-27T03:23:00.560Z,7.78
2022-07-27T03:25:28.867Z,10.38
2022-07-27T03:28:01.953Z,7.47
2022-07-27T03:30:32.474Z,6.15
2022-07-27T03:33:00.632Z,13.43
2022-07-27T03:35:28.893Z,11.30
2022-07-27T03:37:58.267Z,10.98
2022-07-27T03:40:29.360Z,6.60
2022-07-27T03:42:57.563Z,11.80
2022-07-27T03:45:25.953Z,6.47
2022-07-27T03:47:54.100Z,8.80
2022-07-27T03:50:22.538Z,9.93
2022-07-27T03:52:50.683Z,12.90
2022-07-27T03:55:20.100Z,7.95
2022-07-27T03:57:48.247Z,6.65
2022-07-27T04:00:16.523Z,8.07
2022-07-27T04:02:44.641Z,10.90
2022-07-27T04:05:13.550Z,11.85
2022-07-27T04:07:42.018Z,5.38
2022-07-27T04:10:11.231Z,6.75
2022-07-27T04:12:41.500Z,4.25
2022-07-27T04:15:10.721Z,9.48
2022-07-27T04:17:55.238Z,8.65
2022-07-27T04:20:25.574Z,8.52
2022-07-27T04:22:53.564Z,5.18
2022-07-27T04:25:21.930Z,7.80
2022-07-27T04:27:54.499Z,9.32
2022-07-27T04:30:23.170Z,9.25
2022-07-27T04:32:51.531Z,7.60
2022-07-27T04:35:25.685Z,4.78
2022-07-27T04:37:58.179Z,5.82
2022-07-27T04:40:31.181Z,6.10
2022-07-27T04:43:00.940Z,6.35
2022-07-27T04:45:29.133Z,7.00
2022-07-27T04:47:57.283Z,6.90
2022-07-27T04:50:25.566Z,7.53
2022-07-27T04:52:53.696Z,4.45
2022-07-27T04:55:21.739Z,8.25
2022-07-27T04:57:50.646Z,5.28
2022-07-27T05:00:20.420Z,7.07
2022-07-27T05:02:48.593Z,9.32
2022-07-27T05:05:16.606Z,4.40
2022-07-27T05:07:44.708Z,3.67
2022-07-27T05:10:17.932Z,6.30
2022-07-27T05:12:48.112Z,9.07
2022-07-27T05:15:16.468Z,5.00
2022-07-27T05:17:45.910Z,4.15
2022-07-27T05:20:15.095Z,7.03
2022-07-27T05:22:43.414Z,5.82
2022-07-27T05:25:11.708Z,6.00
2022-07-27T05:27:53.910Z,6.65
2022-07-27T05:30:25.554Z,10.27
2022-07-27T05:32:55.057Z,8.90
2022-07-27T05:35:23.681Z,4.70
2022-07-27T05:37:51.902Z,5.15
2022-07-27T05:40:20.157Z,9.57
2022-07-27T05:42:48.192Z,5.40
2022-07-27T05:45:16.620Z,5.88
2022-07-27T05:47:44.629Z,4.85
2022-07-27T05:50:14.418Z,10.45
2022-07-27T05:52:43.274Z,10.98
2022-07-27T05:55:12.097Z,5.53
2022-07-27T05:57:41.950Z,7.00
2022-07-27T06:00:11.917Z,7.10
2022-07-27T06:02:40.085Z,5.75
2022-07-27T06:05:14.876Z,3.05
2022-07-27T06:07:59.354Z,8.82
2022-07-27T06:10:28.473Z,8.20
2022-07-27T06:12:57.048Z,7.75
2022-07-27T06:15:25.770Z,5.13
2022-07-27T06:17:54.404Z,5.78
2022-07-27T06:20:23.747Z,7.57
2022-07-27T06:22:54.723Z,6.65
2022-07-27T06:25:34.356Z,10.50
2022-07-27T06:28:04.704Z,6.20
2022-07-27T06:30:33.117Z,7.18
2022-07-27T06:33:01.477Z,10.80
2022-07-27T06:35:29.733Z,9.65
2022-07-27T06:38:00.352Z,8.20
2022-07-27T06:40:29.914Z,11.13
2022-07-27T06:42:58.425Z,9.77
2022-07-27T06:45:27.827Z,8.70
2022-07-27T06:47:55.940Z,3.60
2022-07-27T06:50:25.600Z,4.30
2022-07-27T06:52:53.811Z,6.57
2022-07-27T06:55:23.237Z,7.72
2022-07-27T06:57:51.466Z,5.53
2022-07-27T07:00:19.528Z,6.68
2022-07-27T07:02:55.147Z,12.15
2022-07-27T07:05:24.082Z,5.68
2022-07-27T07:07:52.709Z,8.27
2022-07-27T07:10:23.982Z,6.43
2022-07-27T07:12:55.764Z,5.13
2022-07-27T07:15:25.440Z,9.07
2022-07-27T07:17:53.512Z,9.23
2022-07-27T07:20:21.754Z,2.80
2022-07-27T07:22:50.146Z,7.28
2022-07-27T07:25:18.346Z,6.55
2022-07-27T07:27:47.734Z,8.75
2022-07-27T07:30:16.051Z,11.55
2022-07-27T07:32:44.137Z,4.32
2022-07-27T07:35:12.366Z,17.02
2022-07-27T07:37:40.583Z,7.45
2022-07-27T07:40:41.568Z,9.95
2022-07-27T07:43:01.844Z,6.32
2022-07-27T07:45:31.511Z,7.50
2022-07-27T07:47:59.648Z,9.60
2022-07-27T07:50:28.894Z,5.53
2022-07-27T07:52:57.086Z,8.18
2022-07-27T07:55:27.458Z,6.85
2022-07-27T07:57:57.421Z,9.50
2022-07-27T08:00:26.900Z,8.07
2022-07-27T08:02:57.789Z,6.25
2022-07-27T08:05:27.310Z,5.18
2022-07-27T08:07:56.096Z,6.85
2022-07-27T08:10:24.895Z,8.38
2022-07-27T08:12:55.552Z,7.68
2022-07-27T08:15:34.728Z,5.80
2022-07-27T08:18:06.703Z,6.03
2022-07-27T08:20:35.351Z,8.55
2022-07-27T08:23:03.645Z,4.15
2022-07-27T08:25:32.080Z,6.70
2022-07-27T08:28:00.268Z,7.28
2022-07-27T08:30:32.406Z,6.95
2022-07-27T08:33:04.302Z,5.20
2022-07-27T08:35:34.866Z,4.43
2022-07-27T08:38:04.946Z,4.45
2022-07-27T08:40:40.163Z,6.30
2022-07-27T08:43:11.014Z,7.22
2022-07-27T08:45:41.966Z,6.03
2022-07-27T08:48:14.567Z,6.50
2022-07-27T08:50:44.644Z,5.82
2022-07-27T08:53:14.536Z,8.00
2022-07-27T08:55:44.694Z,9.85
2022-07-27T08:58:13.805Z,6.47
2022-07-27T09:00:44.251Z,5.63
2022-07-27T09:03:18.503Z,6.68
2022-07-27T09:05:51.285Z,5.78
2022-07-27T09:08:24.350Z,6.03
2022-07-27T09:10:54.694Z,9.00
2022-07-27T09:13:25.898Z,4.72
2022-07-27T09:16:17.638Z,4.80
2022-07-27T09:18:44.705Z,6.25
2022-07-27T09:21:16.292Z,5.00
2022-07-27T09:23:48.077Z,6.40
2022-07-27T09:26:35.875Z,5.25
2022-07-27T09:29:06.940Z,7.80
2022-07-27T09:31:42.753Z,4.55
2022-07-27T09:34:11.806Z,10.43
2022-07-27T09:36:53.354Z,9.13
2022-07-27T09:39:23.313Z,4.72
2022-07-27T09:41:55.666Z,6.07
2022-07-27T09:44:44.053Z,8.52
2022-07-27T09:47:23.278Z,5.53
2022-07-27T09:49:51.483Z,6.28
2022-07-27T09:52:26.438Z,5.68
2022-07-27T09:54:55.179Z,5.90
2022-07-27T09:57:23.298Z,5.78
2022-07-27T10:00:13.951Z,6.07
2022-07-27T10:02:43.469Z,5.93
2022-07-27T10:05:11.993Z,8.02
2022-07-27T10:07:42.654Z,7.13
2022-07-27T10:10:12.554Z,4.60
2022-07-27T10:12:41.473Z,4.95
2022-07-27T10:15:10.938Z,5.00
2022-07-27T10:17:44.246Z,3.35
2022-07-27T10:20:16.839Z,2.35
2022-07-27T10:22:54.087Z,7.07
2022-07-27T10:25:23.320Z,5.90
2022-07-27T10:28:10.369Z,4.00
2022-07-27T10:30:40.056Z,3.63
2022-07-27T10:33:15.761Z,5.15
2022-07-27T10:35:44.169Z,4.53
2022-07-27T10:38:16.742Z,6.07
2022-07-27T10:40:49.248Z,6.60
2022-07-27T10:43:22.162Z,5.70
2022-07-27T10:46:01.612Z,3.65
2022-07-27T10:48:40.543Z,4.00
2022-07-27T10:51:13.662Z,4.50
2022-07-27T10:56:46.829Z,5.07
2022-07-27T10:59:15.436Z,4.05
2022-07-27T11:01:58.057Z,5.53
2022-07-27T11:04:27.267Z,5.40
2022-07-27T11:07:23.991Z,6.63
2022-07-27T11:10:03.565Z,6.75
2022-07-27T11:12:32.870Z,4.22
2022-07-27T11:15:02.464Z,7.55
2022-07-27T11:17:54.772Z,4.75
2022-07-27T11:20:23.323Z,5.63
2022-07-27T11:25:41.079Z,8.18
2022-07-27T11:28:09.127Z,5.90
2022-07-27T11:30:37.465Z,6.45
2022-07-27T11:33:07.272Z,8.02
2022-07-27T11:35:35.672Z,5.90
2022-07-27T11:38:06.073Z,8.70
2022-07-27T11:43:39.031Z,6.40
2022-07-27T11:46:16.004Z,4.10
2022-07-27T11:49:08.611Z,3.17
2022-07-27T11:51:43.307Z,4.18
2022-07-27T11:54:13.326Z,6.38
2022-07-27T11:56:46.594Z,7.47
2022-07-27T11:59:17.223Z,7.40
2022-07-27T12:01:48.574Z,4.85
2022-07-27T12:04:25.164Z,4.97
2022-07-27T12:07:05.930Z,4.63
2022-07-27T12:09:38.302Z,4.43
2022-07-27T12:12:16.395Z,3.63
2022-07-27T12:14:47.162Z,5.22
2022-07-27T12:17:27.848Z,2.88
2022-07-27T12:19:59.062Z,2.80
2022-07-27T12:22:34.003Z,5.72
2022-07-27T12:25:12.397Z,10.80
2022-07-27T12:27:57.131Z,7.10
2022-07-27T12:30:33.358Z,6.13
2022-07-27T12:33:02.515Z,7.50
2022-07-27T12:35:37.325Z,4.82
2022-07-27T12:38:08.669Z,2.60
2022-07-27T12:40:45.091Z,5.72
2022-07-27T12:43:18.259Z,1.92
2022-07-27T12:45:47.784Z,2.42
2022-07-27T12:48:17.870Z,7.45
2022-07-27T12:50:48.146Z,5.57
2022-07-27T12:53:17.642Z,5.38
2022-07-27T12:55:46.033Z,3.25
2022-07-27T12:58:15.605Z,6.22
2022-07-27T13:00:44.152Z,4.45
2022-07-27T13:03:12.261Z,3.65
2022-07-27T13:05:40.436Z,4.63
2022-07-27T13:08:09.453Z,2.80
2022-07-27T13:10:38.309Z,4.57
2022-07-27T13:13:07.333Z,3.70
2022-07-27T13:15:37.315Z,5.13
2022-07-27T13:18:05.711Z,5.30
2022-07-27T13:20:34.044Z,4.13
2022-07-27T13:23:02.044Z,4.22
2022-07-27T13:25:30.430Z,5.95
2022-07-27T13:27:58.510Z,5.43
2022-07-27T13:30:26.885Z,2.63
2022-07-27T13:32:56.257Z,4.95
2022-07-27T13:35:24.541Z,5.55
2022-07-27T13:37:52.590Z,3.63
2022-07-27T13:40:21.063Z,7.63
2022-07-27T13:42:49.181Z,8.77
2022-07-27T13:45:17.378Z,5.05
2022-07-27T13:47:45.394Z,3.38
2022-07-27T13:50:19.231Z,4.72
2022-07-27T13:52:48.954Z,3.75
2022-07-27T13:55:18.770Z,2.67
2022-07-27T13:57:47.818Z,6.80
2022-07-27T14:00:17.503Z,6.53
2022-07-27T14:02:46.193Z,5.80
2022-07-27T14:05:20.261Z,2.45
2022-07-27T14:07:48.672Z,2.83
2022-07-27T14:10:41.873Z,7.43
2022-07-27T14:13:12.258Z,5.70
2022-07-27T14:15:54.297Z,6.68
2022-07-27T14:18:28.547Z,4.60
2022-07-27T14:20:59.497Z,5.18
2022-07-27T14:23:28.733Z,5.43
2022-07-27T14:25:58.252Z,3.60
2022-07-27T14:28:27.290Z,4.28
2022-07-27T14:30:56.756Z,7.97
2022-07-27T14:33:26.374Z,5.05
2022-07-27T14:36:03.894Z,3.92
2022-07-27T14:38:31.936Z,4.05
2022-07-27T14:41:01.667Z,5.88
2022-07-27T14:43:30.851Z,3.28
2022-07-27T14:45:59.554Z,6.38
2022-07-27T14:48:48.804Z,3.35
2022-07-27T14:51:17.503Z,4.55
2022-07-27T14:53:46.215Z,3.70
2022-07-27T14:56:14.496Z,8.07
2022-07-27T14:58:42.763Z,5.88
2022-07-27T15:01:11.051Z,3.25
2022-07-27T15:03:39.126Z,3.15
2022-07-27T15:06:07.355Z,8.90
2022-07-27T15:08:36.771Z,3.47
2022-07-27T15:11:05.174Z,6.13
2022-07-27T15:13:34.121Z,5.85
2022-07-27T15:16:03.194Z,4.13
2022-07-27T15:18:35.059Z,3.35
2022-07-27T15:21:12.645Z,6.55
2022-07-27T15:23:43.532Z,4.38
2022-07-27T15:26:12.636Z,5.03
2022-07-27T15:28:40.911Z,6.53
2022-07-27T15:31:09.037Z,5.65
2022-07-27T15:33:37.287Z,4.32
2022-07-27T15:36:05.860Z,4.00
2022-07-27T15:38:34.018Z,5.60
2022-07-27T15:41:03.502Z,4.65
2022-07-27T15:43:31.672Z,3.88
2022-07-27T15:45:59.691Z,5.30
2022-07-27T15:48:28.147Z,8.82
2022-07-27T15:50:58.431Z,4.15
2022-07-27T15:53:27.028Z,6.25
2022-07-27T15:55:55.814Z,2.90
2022-07-27T15:58:25.373Z,4.53
2022-07-27T16:00:56.023Z,6.13
2022-07-27T16:03:26.898Z,6.72
2022-07-27T16:05:55.163Z,5.47
2022-07-27T16:08:23.526Z,4.53
2022-07-27T16:10:51.632Z,5.32
2022-07-27T16:13:20.061Z,8.20
2022-07-27T16:16:07.437Z,6.28
2022-07-27T16:18:38.963Z,5.20
2022-07-27T16:21:07.457Z,4.45
2022-07-27T16:23:35.722Z,5.95
2022-07-27T16:26:05.713Z,4.07
2022-07-27T16:28:36.673Z,3.50
2022-07-27T16:31:07.347Z,3.17
2022-07-27T16:33:35.686Z,3.70
2022-07-27T16:36:03.791Z,6.65
2022-07-27T16:38:31.862Z,5.03
2022-07-27T16:40:59.857Z,2.95
2022-07-27T16:43:37.961Z,4.57
2022-07-27T16:46:10.125Z,5.82
2022-07-27T16:48:41.819Z,5.10
2022-07-27T16:51:12.896Z,4.85
2022-07-27T16:53:42.479Z,7.70
2022-07-27T16:56:10.931Z,4.60
2022-07-27T16:58:39.903Z,2.35
2022-07-27T17:01:15.050Z,5.13
2022-07-27T17:03:51.387Z,2.90
2022-07-27T17:06:21.018Z,3.92
2022-07-27T17:08:49.266Z,4.47
2022-07-27T17:11:21.573Z,4.45
2022-07-27T17:13:50.832Z,2.35
2022-07-27T17:16:27.220Z,2.67
2022-07-27T17:18:55.943Z,2.10
2022-07-27T17:21:23.986Z,2.83
2022-07-27T17:23:51.999Z,3.53
2022-07-27T17:26:20.124Z,4.38
2022-07-27T17:28:52.718Z,3.67
2022-07-27T17:31:21.437Z,2.90
2022-07-27T17:33:51.153Z,3.17
2022-07-27T17:36:19.607Z,3.92
2022-07-27T17:38:49.228Z,3.33
2022-07-27T17:41:24.054Z,5.72
2022-07-27T17:43:53.954Z,3.70
2022-07-27T17:46:23.001Z,2.58
2022-07-27T17:48:53.103Z,3.83
2022-07-27T17:51:23.263Z,3.15
2022-07-27T17:53:51.511Z,3.67
2022-07-27T17:56:19.595Z,4.57
2022-07-27T17:58:48.295Z,4.80
2022-07-27T18:01:16.463Z,5.32
2022-07-27T18:03:44.735Z,3.22
2022-07-27T18:06:14.410Z,6.30
2022-07-27T18:08:42.485Z,2.60
2022-07-27T18:11:14.554Z,3.95
2022-07-27T18:13:43.116Z,4.95
2022-07-27T18:16:13.255Z,9.02
2022-07-27T18:18:42.077Z,6.90
2022-07-27T18:21:11.094Z,2.90
2022-07-27T18:23:40.861Z,8.48
2022-07-27T18:26:09.974Z,6.18
2022-07-27T18:28:40.094Z,4.45
2022-07-27T18:31:09.927Z,4.40
2022-07-27T18:33:40.497Z,4.78
2022-07-27T18:36:09.008Z,4.93
2022-07-27T18:38:38.127Z,5.60
2022-07-27T18:41:07.780Z,3.85
2022-07-27T18:43:35.930Z,8.25
2022-07-27T18:46:04.499Z,4.82
2022-07-27T18:48:32.941Z,4.63
2022-07-27T18:51:01.021Z,7.07
2022-07-27T18:53:29.183Z,6.38
2022-07-27T18:55:57.403Z,5.57
2022-07-27T18:58:27.746Z,8.07
2022-07-27T19:00:56.883Z,5.22
2022-07-27T19:03:27.799Z,5.13
2022-07-27T19:05:56.182Z,5.88
2022-07-27T19:08:24.451Z,7.43
2022-07-27T19:10:52.997Z,11.38
2022-07-27T19:13:21.182Z,7.47
2022-07-27T19:15:50.772Z,6.07
2022-07-27T19:18:18.941Z,7.10
2022-07-27T19:20:47.495Z,6.97
2022-07-27T19:23:15.517Z,12.15
2022-07-27T19:25:45.338Z,8.45
2022-07-27T19:28:16.561Z,5.13
2022-07-27T19:30:44.699Z,7.93
2022-07-27T19:33:14.367Z,10.35
2022-07-27T19:35:42.559Z,4.75
2022-07-27T19:38:10.658Z,6.82
2022-07-27T19:40:44.460Z,8.60
2022-07-27T19:43:13.600Z,8.60
2022-07-27T19:45:41.802Z,7.28
2022-07-27T19:48:10.519Z,12.23
2022-07-27T19:50:40.129Z,6.18
2022-07-27T19:53:08.381Z,7.53
2022-07-27T19:55:36.439Z,6.55
2022-07-27T19:58:04.772Z,6.88
2022-07-27T20:00:32.850Z,9.23
2022-07-27T20:03:00.967Z,7.45
2022-07-27T20:05:29.095Z,10.68
2022-07-27T20:07:58.586Z,8.35
2022-07-27T20:10:26.603Z,9.57
2022-07-27T20:12:54.674Z,9.98
2022-07-27T20:15:23.049Z,9.40
2022-07-27T20:17:51.271Z,7.80
2022-07-27T20:20:19.668Z,8.90
2022-07-27T20:22:47.877Z,9.98
2022-07-27T20:25:18.594Z,9.73
2022-07-27T20:27:47.575Z,9.23
2022-07-27T20:30:18.004Z,5.75
2022-07-27T20:32:46.867Z,5.20
2022-07-27T20:35:15.426Z,4.88
2022-07-27T20:37:43.750Z,6.15
2022-07-27T20:40:12.837Z,8.35
2022-07-27T20:42:43.301Z,13.85
2022-07-27T20:45:14.685Z,4.32
2022-07-27T20:47:43.610Z,7.82
2022-07-27T20:50:13.506Z,12.13
2022-07-27T20:52:43.024Z,6.60
2022-07-27T20:55:12.183Z,7.30
2022-07-27T20:57:40.406Z,7.82
2022-07-27T21:00:11.387Z,7.30
2022-07-27T21:02:39.671Z,7.20
2022-07-27T21:05:09.630Z,6.22
2022-07-27T21:07:37.774Z,3.20
2022-07-27T21:10:06.393Z,5.15
2022-07-27T21:12:34.935Z,8.80
2022-07-27T21:15:03.035Z,8.13
2022-07-27T21:17:32.569Z,7.65
2022-07-27T21:20:00.609Z,12.07
2022-07-27T21:22:29.031Z,5.10
2022-07-27T21:24:56.104Z,9.18
2022-07-27T21:27:24.285Z,8.73
2022-07-27T21:29:52.987Z,6.68
2022-07-27T21:32:21.075Z,4.85
2022-07-27T21:34:50.404Z,9.00
2022-07-27T21:37:18.629Z,8.15
2022-07-27T21:40:07.429Z,13.43
2022-07-27T21:42:35.560Z,5.72
2022-07-27T21:45:03.606Z,12.50
2022-07-27T21:47:32.780Z,11.73
2022-07-27T21:50:02.195Z,6.68
2022-07-27T21:52:30.298Z,8.15
2022-07-27T21:54:58.294Z,5.35
2022-07-27T21:57:26.429Z,4.85
2022-07-27T21:59:54.417Z,6.20
2022-07-27T22:02:22.890Z,8.35
2022-07-27T22:04:56.524Z,4.43
2022-07-27T22:07:25.887Z,4.03
2022-07-27T22:09:54.011Z,7.68
2022-07-27T22:12:22.146Z,5.25
2022-07-27T22:14:50.200Z,5.22
2022-07-27T22:17:18.527Z,7.53
2022-07-27T22:19:46.843Z,7.03
2022-07-27T22:22:14.936Z,5.40
2022-07-27T22:24:44.324Z,4.05
2022-07-27T22:27:12.591Z,7.28
2022-07-27T22:29:40.727Z,9.25
2022-07-27T22:32:09.125Z,4.32
2022-07-27T22:34:37.496Z,5.28
2022-07-27T22:37:05.810Z,5.53
2022-07-27T22:39:34.192Z,6.20
2022-07-27T22:42:03.661Z,5.20
2022-07-27T22:44:31.934Z,5.95
2022-07-27T22:46:59.990Z,7.90
2022-07-27T22:49:28.117Z,5.90
2022-07-27T22:51:56.124Z,5.03
2022-07-27T22:54:24.583Z,4.55
2022-07-27T22:56:53.445Z,7.93
2022-07-27T22:59:22.921Z,5.25
2022-07-27T23:01:50.992Z,6.90
2022-07-27T23:04:19.355Z,5.43
2022-07-27T23:06:47.800Z,9.50
2022-07-27T23:09:16.415Z,5.90
2022-07-27T23:11:45.773Z,8.70
2022-07-27T23:14:14.183Z,5.22
2022-07-27T23:16:44.731Z,5.38
2022-07-27T23:19:13.087Z,6.95
2022-07-27T23:21:42.394Z,4.90
2022-07-27T23:24:11.179Z,6.45
2022-07-27T23:26:41.962Z,8.70
2022-07-27T23:29:10.005Z,6.85
2022-07-27T23:31:38.328Z,5.10
2022-07-27T23:34:08.196Z,4.93
2022-07-27T23:36:36.392Z,5.43
2022-07-27T23:39:04.585Z,5.40
2022-07-27T23:41:32.919Z,6.78
2022-07-27T23:44:00.963Z,4.63
2022-07-27T23:46:29.224Z,11.43
2022-07-27T23:48:57.405Z,5.45
2022-07-27T23:51:26.880Z,7.38
2022-07-27T23:53:54.898Z,5.72
2022-07-27T23:56:23.025Z,5.30
2022-07-27T23:58:51.017Z,8.38
